createdAt,value
2023-07-03T00:02:24.464Z,12.2
2023-07-03T00:07:36.701Z,12.1
2023-07-03T00:12:48.947Z,11.9
2023-07-03T00:18:05.771Z,11.7
2023-07-03T00:23:18.403Z,11.6
2023-07-03T00:28:30.441Z,11.4
2023-07-03T00:33:42.681Z,11.3
2023-07-03T00:38:54.924Z,11.2
2023-07-03T00:44:07.033Z,11.1
2023-07-03T00:49:19.132Z,11.1
2023-07-03T00:54:38.196Z,11
2023-07-03T00:59:52.850Z,11.1
2023-07-03T01:05:05.383Z,11.3
2023-07-03T01:10:17.898Z,11.5
2023-07-03T01:15:30.125Z,11.6
2023-07-03T01:20:42.472Z,11.8
2023-07-03T01:25:54.684Z,12
2023-07-03T01:31:07.020Z,12.1
2023-07-03T01:36:19.269Z,12.2
2023-07-03T01:41:31.511Z,12.5
2023-07-03T01:46:43.761Z,12.6
2023-07-03T01:51:55.996Z,12.8
2023-07-03T01:57:08.219Z,12.9
2023-07-03T02:02:20.588Z,13
2023-07-03T02:07:32.866Z,13.1
2023-07-03T02:12:49.824Z,13.1
2023-07-03T02:18:02.115Z,13.2
2023-07-03T02:23:14.205Z,13.3
2023-07-03T02:28:26.323Z,13.4
2023-07-03T02:33:38.558Z,13.5
2023-07-03T02:38:50.762Z,13.6
2023-07-03T02:44:03.102Z,13.7
2023-07-03T02:49:15.270Z,13.8
2023-07-03T02:54:27.432Z,13.9
2023-07-03T02:59:39.591Z,14
2023-07-03T03:04:51.847Z,14.1
2023-07-03T03:10:04.072Z,14.2
2023-07-03T03:15:16.286Z,14.2
2023-07-03T03:20:28.508Z,14.2
2023-07-03T03:25:40.820Z,14.3
2023-07-03T03:36:10.772Z,14.4
2023-07-03T03:41:22.934Z,14.4
2023-07-03T03:46:35.165Z,14.4
2023-07-03T03:51:47.435Z,14.5
2023-07-03T03:56:59.645Z,14.5
2023-07-03T04:02:11.951Z,14.5
2023-07-03T04:07:24.236Z,14.6
2023-07-03T04:12:37.532Z,14.6
2023-07-03T04:17:49.864Z,14.7
2023-07-03T04:23:02.621Z,14.7
2023-07-03T04:28:15.382Z,14.8
2023-07-03T04:33:27.496Z,14.9
2023-07-03T04:38:39.737Z,15
2023-07-03T04:43:51.870Z,15.1
2023-07-03T04:49:05.018Z,15.2
2023-07-03T04:54:17.230Z,15.3
2023-07-03T04:59:29.454Z,15.5
2023-07-03T05:04:41.782Z,15.6
2023-07-03T05:09:54.416Z,15.8
2023-07-03T05:15:06.709Z,16
2023-07-03T05:20:18.935Z,16.2
2023-07-03T05:25:31.164Z,16.4
2023-07-03T05:30:43.413Z,16.7
2023-07-03T05:35:56.260Z,16.9
2023-07-03T05:41:08.523Z,17.1
2023-07-03T05:46:21.445Z,17.4
2023-07-03T05:51:33.744Z,17.6
2023-07-03T05:56:46.031Z,17.8
2023-07-03T06:01:58.249Z,18.1
2023-07-03T06:07:11.195Z,18.3
2023-07-03T06:12:23.359Z,18.6
2023-07-03T06:17:35.467Z,19.5
2023-07-03T06:22:47.695Z,19.9
2023-07-03T06:28:00.452Z,20.5
2023-07-03T06:33:12.842Z,20.9
2023-07-03T06:38:25.078Z,21.3
2023-07-03T06:43:37.309Z,21.8
2023-07-03T06:48:49.404Z,22.1
2023-07-03T06:54:01.497Z,22.3
2023-07-03T06:59:13.736Z,22.7
2023-07-03T07:04:28.609Z,22.6
2023-07-03T07:09:41.520Z,22.7
2023-07-03T07:14:53.804Z,22.9
2023-07-03T07:20:06.423Z,22.7
2023-07-03T07:25:18.491Z,22.6
2023-07-03T07:30:30.687Z,22.5
2023-07-03T07:35:42.767Z,22.5
2023-07-03T07:40:55.002Z,22.5
2023-07-03T07:46:08.637Z,22.6
2023-07-03T07:51:20.725Z,22.3
2023-07-03T07:56:34.427Z,22.2
2023-07-03T08:01:46.835Z,22.1
2023-07-03T08:12:16.679Z,22.4
2023-07-03T08:17:28.808Z,22.3
2023-07-03T08:22:40.919Z,22.5
2023-07-03T08:27:53.007Z,22.4
2023-07-03T08:33:05.212Z,22.4
2023-07-03T08:38:17.913Z,22.5
2023-07-03T08:43:30.970Z,23
2023-07-03T08:48:43.074Z,23
2023-07-03T08:53:55.639Z,22.9
2023-07-03T08:59:07.761Z,23.2
2023-07-03T09:09:33.088Z,23.2
2023-07-03T09:14:49.350Z,23.3
2023-07-03T09:20:01.447Z,23.2
2023-07-03T09:25:14.721Z,23.7
2023-07-03T09:30:27.306Z,23.9
2023-07-03T09:35:39.517Z,24
2023-07-03T09:40:51.816Z,24.2
2023-07-03T09:46:04.011Z,23.9
2023-07-03T09:51:16.606Z,24
2023-07-03T10:07:15.096Z,23.6
2023-07-03T10:12:27.355Z,24.5
2023-07-03T10:17:39.735Z,24.4
2023-07-03T10:22:52.021Z,25.2
2023-07-03T10:28:04.121Z,25.2
2023-07-03T10:33:17.998Z,25
2023-07-03T10:38:30.983Z,25.7
2023-07-03T10:43:43.211Z,26.6
2023-07-03T10:48:55.462Z,27
2023-07-03T10:54:07.553Z,27.1
2023-07-03T10:59:20.800Z,26.8
2023-07-03T11:04:33.105Z,26.5
2023-07-03T11:09:45.232Z,26.4
2023-07-03T11:14:57.906Z,26.1
2023-07-03T11:20:10.319Z,26
2023-07-03T11:25:22.472Z,26.4
2023-07-03T11:30:34.685Z,27
2023-07-03T11:48:34.722Z,27.7
2023-07-03T11:53:46.831Z,28
2023-07-03T11:58:58.992Z,27.9
2023-07-03T12:04:11.141Z,28.1
2023-07-03T12:09:23.268Z,28.1
2023-07-03T12:14:35.373Z,28.7
2023-07-03T12:19:47.514Z,29.1
2023-07-03T12:30:17.811Z,29.6
2023-07-03T12:35:30.039Z,29.4
2023-07-03T12:40:42.150Z,29
2023-07-03T12:45:54.438Z,28.9
2023-07-03T12:51:08.339Z,29.2
2023-07-03T12:56:20.442Z,29.4
2023-07-03T13:01:32.659Z,29.5
2023-07-03T13:06:44.895Z,28.9
2023-07-03T13:11:57.118Z,29.3
2023-07-03T13:17:09.259Z,29.2
2023-07-03T13:22:21.554Z,29.8
2023-07-03T13:27:35.630Z,29.8
2023-07-03T13:32:47.751Z,29.8
2023-07-03T13:37:59.858Z,29.7
2023-07-03T13:43:11.891Z,29.5
2023-07-03T13:48:24.180Z,29.7
2023-07-03T13:53:36.334Z,29
2023-07-03T13:58:48.428Z,28.7
2023-07-03T14:09:18.397Z,27.4
2023-07-03T14:14:32.150Z,27
2023-07-03T14:19:44.249Z,26.8
2023-07-03T14:24:59.939Z,27.1
2023-07-03T14:30:12.894Z,26.9
2023-07-03T14:35:25.907Z,27
2023-07-03T14:40:42.558Z,27.1
2023-07-03T14:45:54.847Z,27.3
2023-07-03T14:51:07.260Z,27.6
2023-07-03T14:56:19.293Z,27.5
2023-07-03T15:01:31.416Z,28.1
2023-07-03T15:06:43.569Z,28.1
2023-07-03T15:11:56.196Z,27.7
2023-07-03T15:17:08.415Z,27.9
2023-07-03T15:22:20.475Z,28
2023-07-03T15:27:32.513Z,28.1
2023-07-03T15:32:44.585Z,28.1
2023-07-03T15:37:56.633Z,28.4
2023-07-03T15:43:08.656Z,28.8
2023-07-03T15:48:20.757Z,28.6
2023-07-03T15:53:37.648Z,28.4
2023-07-03T15:58:49.870Z,27.9
2023-07-03T16:04:02.646Z,27.8
2023-07-03T16:09:14.883Z,27.7
2023-07-03T16:14:26.989Z,27.9
2023-07-03T16:19:41.968Z,27.7
2023-07-03T16:24:54.045Z,27.5
2023-07-03T16:30:22.013Z,27.3
2023-07-03T16:35:34.291Z,26.8
2023-07-03T16:40:46.527Z,26.5
2023-07-03T16:45:58.625Z,26.4
2023-07-03T16:51:11.780Z,26.5
2023-07-03T16:56:24.821Z,26.7
2023-07-03T17:06:57.054Z,26.2
2023-07-03T17:12:09.595Z,26.5
2023-07-03T17:17:21.746Z,26.6
2023-07-03T17:22:40.247Z,26.5
2023-07-03T17:27:52.381Z,26.2
2023-07-03T17:33:04.427Z,25.8
2023-07-03T17:38:16.691Z,25.6
2023-07-03T17:48:48.967Z,25
2023-07-03T17:54:01.071Z,24.7
2023-07-03T17:59:13.173Z,24.4
2023-07-03T18:04:25.191Z,24.2
2023-07-03T18:09:37.292Z,23.7
2023-07-03T18:14:49.394Z,23.4
2023-07-03T18:20:01.627Z,23.1
2023-07-03T18:25:13.850Z,22.8
2023-07-03T18:35:46.337Z,22.4
2023-07-03T18:40:58.445Z,22.2
2023-07-03T18:46:10.644Z,22.1
2023-07-03T18:51:23.303Z,21.9
2023-07-03T18:56:35.530Z,21.8
2023-07-03T19:01:47.784Z,21.6
2023-07-03T19:17:39.028Z,21
2023-07-03T19:22:55.763Z,20.9
2023-07-03T19:28:08.569Z,20.8
2023-07-03T19:33:20.658Z,20.6
2023-07-03T19:38:32.866Z,20.4
2023-07-03T19:43:44.954Z,20.3
2023-07-03T19:48:56.995Z,20.2
2023-07-03T19:54:09.096Z,20.1
2023-07-03T19:59:27.603Z,20
2023-07-03T20:04:42.797Z,19.8
2023-07-03T20:09:54.944Z,19.6
2023-07-03T20:20:26.557Z,19.2
2023-07-03T20:25:38.786Z,19
2023-07-03T20:36:08.647Z,18.5
2023-07-03T20:41:20.702Z,18.4
2023-07-03T20:46:32.929Z,18.2
2023-07-03T20:51:45.206Z,18.1
2023-07-03T20:56:57.623Z,18.1
2023-07-03T21:02:09.778Z,18
2023-07-03T21:07:21.994Z,18
2023-07-03T21:12:34.207Z,17.9
2023-07-03T21:17:46.379Z,17.9
2023-07-03T21:22:58.743Z,17.8
2023-07-03T21:28:10.830Z,17.7
2023-07-03T21:33:22.911Z,17.7
2023-07-03T21:38:35.049Z,17.6
2023-07-03T21:43:47.197Z,17.5
2023-07-03T21:48:59.424Z,17.4
2023-07-03T21:54:11.718Z,17.4
2023-07-03T21:59:23.971Z,17.3
2023-07-03T22:04:36.233Z,17.1
2023-07-03T22:09:48.401Z,17
2023-07-03T22:15:00.608Z,16.8
2023-07-03T22:20:13.208Z,16.7
2023-07-03T22:25:25.826Z,16.5
2023-07-03T22:35:58.912Z,16.3
2023-07-03T22:41:11.010Z,16.3
2023-07-03T22:46:24.275Z,16.1
2023-07-03T22:51:36.539Z,16
2023-07-03T22:56:53.501Z,15.8
2023-07-03T23:02:05.789Z,15.6
2023-07-03T23:07:18.063Z,15.4
2023-07-03T23:12:30.269Z,15.2
2023-07-03T23:17:42.492Z,15.1
2023-07-03T23:22:54.664Z,14.9
2023-07-03T23:28:08.122Z,14.8
2023-07-03T23:33:20.848Z,14.6
2023-07-03T23:38:33.576Z,14.5
2023-07-03T23:43:45.892Z,14.4
2023-07-03T23:48:58.205Z,14.2
2023-07-03T23:54:10.426Z,14.1
2023-07-03T23:59:23.228Z,14
